sensor_id;sensor_type;location;lat;lon;timestamp;pressure;altitude;pressure_sealevel;temperature;humidity
31595;BME280;18200;48.726;8.892;2023-08-08T00:01:09;96914.16;;;27.97;31.77
31595;BME280;18200;48.726;8.892;2023-08-08T00:05:10;96919.88;;;27.75;32.20
31595;BME280;18200;48.726;8.892;2023-08-08T00:09:10;96909.84;;;27.96;32.16
31595;BME280;18200;48.726;8.892;2023-08-08T00:13:11;96918.72;;;28.09;31.62
31595;BME280;18200;48.726;8.892;2023-08-08T00:17:11;96920.84;;;28.14;31.74
31595;BME280;18200;48.726;8.892;2023-08-08T00:21:12;96916.13;;;28.05;31.77
31595;BME280;18200;48.726;8.892;2023-08-08T00:25:12;96926.38;;;26.90;33.40
31595;BME280;18200;48.726;8.892;2023-08-08T00:29:13;96917.69;;;27.79;31.94
31595;BME280;18200;48.726;8.892;2023-08-08T00:33:14;96918.13;;;27.96;31.76
31595;BME280;18200;48.726;8.892;2023-08-08T00:37:14;96920.31;;;27.83;31.90
31595;BME280;18200;48.726;8.892;2023-08-08T00:41:15;96907.41;;;27.98;31.61
31595;BME280;18200;48.726;8.892;2023-08-08T00:45:16;96909.81;;;28.05;32.43
31595;BME280;18200;48.726;8.892;2023-08-08T00:49:17;96910.88;;;28.07;31.81
31595;BME280;18200;48.726;8.892;2023-08-08T00:53:18;96902.56;;;27.65;32.31
31595;BME280;18200;48.726;8.892;2023-08-08T00:57:27;96894.78;;;28.06;31.56
31595;BME280;18200;48.726;8.892;2023-08-08T01:01:27;96889.25;;;28.06;32.39
31595;BME280;18200;48.726;8.892;2023-08-08T01:05:35;96890.84;;;27.89;32.85
31595;BME280;18200;48.726;8.892;2023-08-08T01:09:45;96899.75;;;27.84;33.24
31595;BME280;18200;48.726;8.892;2023-08-08T01:13:49;96895.97;;;27.63;32.41
31595;BME280;18200;48.726;8.892;2023-08-08T01:17:50;96895.16;;;27.81;33.09
31595;BME280;18200;48.726;8.892;2023-08-08T01:21:53;96886.59;;;27.70;32.72
31595;BME280;18200;48.726;8.892;2023-08-08T01:25:54;96887.19;;;27.74;32.81
31595;BME280;18200;48.726;8.892;2023-08-08T01:29:55;96883.03;;;27.87;31.98
31595;BME280;18200;48.726;8.892;2023-08-08T01:33:57;96879.47;;;27.96;32.00
31595;BME280;18200;48.726;8.892;2023-08-08T01:38:06;96883.34;;;27.80;32.25
31595;BME280;18200;48.726;8.892;2023-08-08T01:42:10;96879.97;;;27.85;32.67
31595;BME280;18200;48.726;8.892;2023-08-08T01:46:13;96881.94;;;27.94;32.54
31595;BME280;18200;48.726;8.892;2023-08-08T01:50:14;96883.53;;;27.77;32.42
31595;BME280;18200;48.726;8.892;2023-08-08T01:54:14;96879.31;;;27.48;33.29
31595;BME280;18200;48.726;8.892;2023-08-08T01:58:15;96883.00;;;27.09;33.72
31595;BME280;18200;48.726;8.892;2023-08-08T02:02:15;96893.44;;;26.78;34.35
31595;BME280;18200;48.726;8.892;2023-08-08T02:06:17;96877.81;;;26.93;33.76
31595;BME280;18200;48.726;8.892;2023-08-08T02:10:18;96871.63;;;27.52;33.01
31595;BME280;18200;48.726;8.892;2023-08-08T02:14:20;96874.97;;;27.56;32.70
31595;BME280;18200;48.726;8.892;2023-08-08T02:18:21;96876.19;;;27.64;32.94
31595;BME280;18200;48.726;8.892;2023-08-08T02:22:21;96867.59;;;27.62;32.82
31595;BME280;18200;48.726;8.892;2023-08-08T02:26:22;96875.50;;;26.15;34.81
31595;BME280;18200;48.726;8.892;2023-08-08T02:30:22;96865.69;;;27.00;33.94
31595;BME280;18200;48.726;8.892;2023-08-08T02:34:23;96857.56;;;27.14;33.99
31595;BME280;18200;48.726;8.892;2023-08-08T02:38:24;96856.66;;;26.90;33.50
31595;BME280;18200;48.726;8.892;2023-08-08T02:42:24;96854.81;;;26.96;33.57
31595;BME280;18200;48.726;8.892;2023-08-08T02:46:24;96864.75;;;27.21;33.01
31595;BME280;18200;48.726;8.892;2023-08-08T02:50:25;96856.66;;;27.08;33.31
31595;BME280;18200;48.726;8.892;2023-08-08T02:54:26;96869.34;;;27.24;33.81
31595;BME280;18200;48.726;8.892;2023-08-08T02:58:26;96860.91;;;27.45;32.77
31595;BME280;18200;48.726;8.892;2023-08-08T03:02:27;96857.69;;;26.65;34.13
31595;BME280;18200;48.726;8.892;2023-08-08T03:06:27;96845.91;;;27.19;32.91
31595;BME280;18200;48.726;8.892;2023-08-08T03:10:29;96856.81;;;26.96;33.44
31595;BME280;18200;48.726;8.892;2023-08-08T03:14:29;96854.38;;;27.07;33.74
31595;BME280;18200;48.726;8.892;2023-08-08T03:18:32;96855.88;;;27.26;33.16
31595;BME280;18200;48.726;8.892;2023-08-08T03:22:32;96855.84;;;27.44;33.29
31595;BME280;18200;48.726;8.892;2023-08-08T03:26:33;96854.59;;;27.54;32.46
31595;BME280;18200;48.726;8.892;2023-08-08T03:30:36;96851.09;;;27.53;32.49
31595;BME280;18200;48.726;8.892;2023-08-08T03:34:38;96852.34;;;27.34;33.24
31595;BME280;18200;48.726;8.892;2023-08-08T03:38:39;96854.78;;;27.41;32.95
31595;BME280;18200;48.726;8.892;2023-08-08T03:42:40;96862.13;;;27.53;32.91
31595;BME280;18200;48.726;8.892;2023-08-08T03:46:41;96854.03;;;27.83;32.16
31595;BME280;18200;48.726;8.892;2023-08-08T03:50:42;96855.69;;;27.47;33.15
31595;BME280;18200;48.726;8.892;2023-08-08T03:54:43;96845.28;;;27.42;33.74
31595;BME280;18200;48.726;8.892;2023-08-08T03:58:44;96854.69;;;27.68;32.67
31595;BME280;18200;48.726;8.892;2023-08-08T04:02:45;96852.16;;;27.89;32.47
31595;BME280;18200;48.726;8.892;2023-08-08T04:06:45;96855.53;;;28.02;32.05
31595;BME280;18200;48.726;8.892;2023-08-08T04:10:46;96855.03;;;27.71;32.79
31595;BME280;18200;48.726;8.892;2023-08-08T04:14:47;96857.53;;;27.41;32.85
31595;BME280;18200;48.726;8.892;2023-08-08T04:18:47;96859.06;;;27.93;32.26
31595;BME280;18200;48.726;8.892;2023-08-08T04:22:48;96860.28;;;27.92;32.19
31595;BME280;18200;48.726;8.892;2023-08-08T04:26:48;96867.94;;;27.55;32.54
31595;BME280;18200;48.726;8.892;2023-08-08T04:30:48;96860.84;;;27.73;32.68
31595;BME280;18200;48.726;8.892;2023-08-08T04:34:49;96854.19;;;26.65;34.55
31595;BME280;18200;48.726;8.892;2023-08-08T04:38:49;96855.69;;;27.29;34.22
31595;BME280;18200;48.726;8.892;2023-08-08T04:42:50;96859.28;;;26.84;33.88
31595;BME280;18200;48.726;8.892;2023-08-08T04:46:51;96858.19;;;27.36;33.92
31595;BME280;18200;48.726;8.892;2023-08-08T04:50:51;96856.34;;;26.97;33.74
31595;BME280;18200;48.726;8.892;2023-08-08T04:54:51;96855.09;;;27.25;33.82
31595;BME280;18200;48.726;8.892;2023-08-08T04:58:52;96868.19;;;27.66;33.39
31595;BME280;18200;48.726;8.892;2023-08-08T05:02:52;96862.13;;;27.26;33.65
31595;BME280;18200;48.726;8.892;2023-08-08T05:06:52;96872.53;;;27.49;32.68
31595;BME280;18200;48.726;8.892;2023-08-08T05:10:53;96874.38;;;26.44;34.76
31595;BME280;18200;48.726;8.892;2023-08-08T05:14:53;96865.19;;;27.28;33.42
31595;BME280;18200;48.726;8.892;2023-08-08T05:18:53;96862.34;;;27.74;32.30
31595;BME280;18200;48.726;8.892;2023-08-08T05:22:54;96865.59;;;27.72;32.61
31595;BME280;18200;48.726;8.892;2023-08-08T05:26:54;96860.91;;;27.45;32.86
31595;BME280;18200;48.726;8.892;2023-08-08T05:30:54;96862.06;;;26.17;35.14
31595;BME280;18200;48.726;8.892;2023-08-08T05:34:56;96858.50;;;26.75;34.34
31595;BME280;18200;48.726;8.892;2023-08-08T05:38:57;96853.94;;;27.68;32.34
31595;BME280;18200;48.726;8.892;2023-08-08T05:42:58;96856.91;;;27.28;33.29
31595;BME280;18200;48.726;8.892;2023-08-08T05:46:59;96862.75;;;27.30;33.47
31595;BME280;18200;48.726;8.892;2023-08-08T05:50:59;96866.78;;;26.93;33.91
31595;BME280;18200;48.726;8.892;2023-08-08T05:54:59;96857.25;;;27.03;33.80
31595;BME280;18200;48.726;8.892;2023-08-08T05:59:00;96855.09;;;26.62;34.70
31595;BME280;18200;48.726;8.892;2023-08-08T06:03:01;96858.69;;;28.09;32.53
31595;BME280;18200;48.726;8.892;2023-08-08T06:07:01;96860.41;;;28.30;31.43
31595;BME280;18200;48.726;8.892;2023-08-08T06:11:02;96866.81;;;28.13;31.99
31595;BME280;18200;48.726;8.892;2023-08-08T06:15:02;96861.31;;;28.60;31.48
31595;BME280;18200;48.726;8.892;2023-08-08T06:19:04;96869.84;;;29.09;31.32
31595;BME280;18200;48.726;8.892;2023-08-08T06:23:04;96864.03;;;29.75;30.18
31595;BME280;18200;48.726;8.892;2023-08-08T06:27:04;96863.13;;;28.87;31.67
31595;BME280;18200;48.726;8.892;2023-08-08T06:31:05;96867.50;;;28.55;31.13
31595;BME280;18200;48.726;8.892;2023-08-08T06:35:05;96858.56;;;28.60;31.34
31595;BME280;18200;48.726;8.892;2023-08-08T06:39:06;96852.75;;;28.58;31.29
31595;BME280;18200;48.726;8.892;2023-08-08T06:43:06;96860.28;;;27.92;32.60
31595;BME280;18200;48.726;8.892;2023-08-08T06:47:07;96854.78;;;29.10;30.60
31595;BME280;18200;48.726;8.892;2023-08-08T06:51:07;96858.00;;;29.47;30.32
31595;BME280;18200;48.726;8.892;2023-08-08T06:55:08;96860.25;;;28.34;31.00
31595;BME280;18200;48.726;8.892;2023-08-08T06:59:08;96858.91;;;28.29;31.88
31595;BME280;18200;48.726;8.892;2023-08-08T07:03:08;96857.78;;;29.22;29.84
31595;BME280;18200;48.726;8.892;2023-08-08T07:07:09;96869.78;;;28.80;30.86
31595;BME280;18200;48.726;8.892;2023-08-08T07:11:10;96856.69;;;29.04;30.87
31595;BME280;18200;48.726;8.892;2023-08-08T07:15:11;96860.56;;;29.22;30.92
31595;BME280;18200;48.726;8.892;2023-08-08T07:19:12;96857.50;;;29.20;30.59
31595;BME280;18200;48.726;8.892;2023-08-08T07:23:12;96860.00;;;29.32;30.35
31595;BME280;18200;48.726;8.892;2023-08-08T07:27:12;96857.84;;;30.00;28.96
31595;BME280;18200;48.726;8.892;2023-08-08T07:31:13;96850.47;;;29.77;30.43
31595;BME280;18200;48.726;8.892;2023-08-08T07:35:13;96852.25;;;28.83;32.06
31595;BME280;18200;48.726;8.892;2023-08-08T07:39:15;96836.28;;;29.89;29.47
31595;BME280;18200;48.726;8.892;2023-08-08T07:43:15;96844.16;;;30.46;29.08
31595;BME280;18200;48.726;8.892;2023-08-08T07:47:16;96847.88;;;29.30;31.46
31595;BME280;18200;48.726;8.892;2023-08-08T07:51:16;96838.59;;;29.62;30.20
31595;BME280;18200;48.726;8.892;2023-08-08T07:55:16;96837.72;;;30.54;28.98
31595;BME280;18200;48.726;8.892;2023-08-08T07:59:17;96843.38;;;29.32;30.81
31595;BME280;18200;48.726;8.892;2023-08-08T08:03:17;96850.81;;;29.70;30.48
31595;BME280;18200;48.726;8.892;2023-08-08T08:07:17;96853.09;;;29.71;30.23
31595;BME280;18200;48.726;8.892;2023-08-08T08:11:18;96843.75;;;30.53;29.08
31595;BME280;18200;48.726;8.892;2023-08-08T08:15:18;96832.28;;;29.76;29.62
31595;BME280;18200;48.726;8.892;2023-08-08T08:19:19;96844.78;;;30.35;29.38
31595;BME280;18200;48.726;8.892;2023-08-08T08:23:20;96841.25;;;30.75;29.24
31595;BME280;18200;48.726;8.892;2023-08-08T08:27:20;96844.63;;;30.10;29.82
31595;BME280;18200;48.726;8.892;2023-08-08T08:31:20;96842.41;;;31.91;27.75
31595;BME280;18200;48.726;8.892;2023-08-08T08:35:21;96844.78;;;30.96;28.23
31595;BME280;18200;48.726;8.892;2023-08-08T08:39:21;96844.72;;;30.90;28.09
31595;BME280;18200;48.726;8.892;2023-08-08T08:43:22;96829.50;;;31.57;27.61
31595;BME280;18200;48.726;8.892;2023-08-08T08:47:24;96849.06;;;28.52;29.84
31595;BME280;18200;48.726;8.892;2023-08-08T08:51:24;96827.53;;;29.33;29.51
31595;BME280;18200;48.726;8.892;2023-08-08T08:55:25;96821.94;;;29.03;29.91
31595;BME280;18200;48.726;8.892;2023-08-08T08:59:26;96828.38;;;29.68;29.07
31595;BME280;18200;48.726;8.892;2023-08-08T09:03:27;96828.13;;;30.35;27.18
31595;BME280;18200;48.726;8.892;2023-08-08T09:07:28;96806.56;;;31.62;26.60
31595;BME280;18200;48.726;8.892;2023-08-08T09:11:31;96823.50;;;31.95;25.68
31595;BME280;18200;48.726;8.892;2023-08-08T09:15:32;96829.59;;;29.67;28.80
31595;BME280;18200;48.726;8.892;2023-08-08T09:19:33;96822.81;;;31.75;25.68
31595;BME280;18200;48.726;8.892;2023-08-08T09:23:33;96825.66;;;30.57;26.73
31595;BME280;18200;48.726;8.892;2023-08-08T09:27:35;96818.97;;;29.95;27.34
31595;BME280;18200;48.726;8.892;2023-08-08T09:31:35;96817.88;;;31.33;25.48
31595;BME280;18200;48.726;8.892;2023-08-08T09:35:38;96812.47;;;30.32;26.97
31595;BME280;18200;48.726;8.892;2023-08-08T09:39:39;96810.91;;;29.76;26.46
31595;BME280;18200;48.726;8.892;2023-08-08T09:43:39;96826.47;;;28.77;27.31
31595;BME280;18200;48.726;8.892;2023-08-08T09:47:40;96819.13;;;30.40;26.14
31595;BME280;18200;48.726;8.892;2023-08-08T09:51:41;96810.19;;;30.31;25.76
31595;BME280;18200;48.726;8.892;2023-08-08T09:55:43;96807.16;;;30.14;26.70
31595;BME280;18200;48.726;8.892;2023-08-08T09:59:45;96811.63;;;29.92;26.07
31595;BME280;18200;48.726;8.892;2023-08-08T10:03:51;96809.28;;;30.59;25.37
31595;BME280;18200;48.726;8.892;2023-08-08T10:07:53;96805.81;;;27.93;28.06
31595;BME280;18200;48.726;8.892;2023-08-08T10:11:54;96793.88;;;29.69;26.19
31595;BME280;18200;48.726;8.892;2023-08-08T10:15:55;96794.56;;;30.13;25.57
31595;BME280;18200;48.726;8.892;2023-08-08T10:19:56;96797.56;;;30.50;25.69
31595;BME280;18200;48.726;8.892;2023-08-08T10:24:10;96793.31;;;30.75;24.99
31595;BME280;18200;48.726;8.892;2023-08-08T10:28:12;96810.41;;;30.13;25.07
31595;BME280;18200;48.726;8.892;2023-08-08T10:32:23;96799.16;;;30.56;25.03
31595;BME280;18200;48.726;8.892;2023-08-08T10:36:43;96795.94;;;30.23;24.67
31595;BME280;18200;48.726;8.892;2023-08-08T10:40:43;96812.41;;;29.63;24.92
31595;BME280;18200;48.726;8.892;2023-08-08T10:44:51;96816.19;;;29.95;23.64
31595;BME280;18200;48.726;8.892;2023-08-08T10:48:56;96789.00;;;32.19;22.85
31595;BME280;18200;48.726;8.892;2023-08-08T10:52:57;96791.19;;;31.10;23.21
31595;BME280;18200;48.726;8.892;2023-08-08T10:56:58;96787.34;;;31.33;23.88
31595;BME280;18200;48.726;8.892;2023-08-08T11:00:59;96784.25;;;32.89;22.85
31595;BME280;18200;48.726;8.892;2023-08-08T11:05:01;96768.25;;;32.62;22.12
31595;BME280;18200;48.726;8.892;2023-08-08T11:09:05;96790.41;;;32.45;22.57
31595;BME280;18200;48.726;8.892;2023-08-08T11:13:07;96790.25;;;31.44;22.82
31595;BME280;18200;48.726;8.892;2023-08-08T11:17:07;96782.53;;;31.59;22.99
31595;BME280;18200;48.726;8.892;2023-08-08T11:21:11;96791.78;;;29.64;24.38
31595;BME280;18200;48.726;8.892;2023-08-08T11:25:14;96786.41;;;32.09;22.33
31595;BME280;18200;48.726;8.892;2023-08-08T11:29:14;96792.91;;;31.33;24.20
31595;BME280;18200;48.726;8.892;2023-08-08T11:33:15;96775.00;;;31.34;23.81
31595;BME280;18200;48.726;8.892;2023-08-08T11:37:18;96778.56;;;32.02;23.25
31595;BME280;18200;48.726;8.892;2023-08-08T11:41:22;96788.88;;;31.34;23.25
31595;BME280;18200;48.726;8.892;2023-08-08T11:45:23;96796.44;;;31.33;23.60
31595;BME280;18200;48.726;8.892;2023-08-08T11:49:24;96776.91;;;31.85;23.16
31595;BME280;18200;48.726;8.892;2023-08-08T11:53:25;96780.72;;;32.24;23.15
31595;BME280;18200;48.726;8.892;2023-08-08T11:57:25;96774.84;;;32.17;23.12
31595;BME280;18200;48.726;8.892;2023-08-08T12:01:26;96775.84;;;30.89;25.04
31595;BME280;18200;48.726;8.892;2023-08-08T12:05:27;96779.59;;;30.65;25.88
31595;BME280;18200;48.726;8.892;2023-08-08T12:09:31;96754.44;;;31.88;23.83
31595;BME280;18200;48.726;8.892;2023-08-08T12:13:33;96761.63;;;32.00;23.64
31595;BME280;18200;48.726;8.892;2023-08-08T12:17:36;96756.06;;;31.64;24.42
31595;BME280;18200;48.726;8.892;2023-08-08T12:21:37;96761.16;;;31.71;24.32
31595;BME280;18200;48.726;8.892;2023-08-08T12:25:38;96749.84;;;32.92;23.08
31595;BME280;18200;48.726;8.892;2023-08-08T12:29:39;96753.31;;;32.65;21.83
31595;BME280;18200;48.726;8.892;2023-08-08T12:33:39;96756.34;;;31.09;24.36
31595;BME280;18200;48.726;8.892;2023-08-08T12:37:39;96745.69;;;32.49;23.52
31595;BME280;18200;48.726;8.892;2023-08-08T12:41:39;96772.69;;;31.58;23.99
31595;BME280;18200;48.726;8.892;2023-08-08T12:45:40;96769.44;;;31.65;24.46
31595;BME280;18200;48.726;8.892;2023-08-08T12:49:41;96771.34;;;29.76;27.26
31595;BME280;18200;48.726;8.892;2023-08-08T12:53:41;96763.88;;;31.65;24.62
31595;BME280;18200;48.726;8.892;2023-08-08T12:57:42;96759.72;;;31.18;25.92
31595;BME280;18200;48.726;8.892;2023-08-08T13:01:42;96765.66;;;31.06;26.16
31595;BME280;18200;48.726;8.892;2023-08-08T13:05:42;96754.31;;;32.62;25.55
31595;BME280;18200;48.726;8.892;2023-08-08T13:09:43;96748.19;;;32.47;24.77
31595;BME280;18200;48.726;8.892;2023-08-08T13:13:43;96761.78;;;32.34;24.24
31595;BME280;18200;48.726;8.892;2023-08-08T13:17:43;96758.94;;;32.17;24.79
31595;BME280;18200;48.726;8.892;2023-08-08T13:21:44;96749.31;;;32.77;24.90
31595;BME280;18200;48.726;8.892;2023-08-08T13:25:44;96748.78;;;32.84;24.78
31595;BME280;18200;48.726;8.892;2023-08-08T13:29:45;96752.63;;;32.98;24.22
31595;BME280;18200;48.726;8.892;2023-08-08T13:33:45;96744.84;;;31.89;24.53
31595;BME280;18200;48.726;8.892;2023-08-08T13:37:46;96741.75;;;33.88;22.57
31595;BME280;18200;48.726;8.892;2023-08-08T13:41:49;96734.38;;;34.07;22.17
31595;BME280;18200;48.726;8.892;2023-08-08T13:45:50;96733.59;;;32.04;24.66
31595;BME280;18200;48.726;8.892;2023-08-08T13:49:51;96746.28;;;32.86;23.73
31595;BME280;18200;48.726;8.892;2023-08-08T13:53:52;96743.06;;;32.40;25.07
31595;BME280;18200;48.726;8.892;2023-08-08T13:57:52;96732.69;;;33.32;24.68
31595;BME280;18200;48.726;8.892;2023-08-08T14:01:55;96734.84;;;31.35;26.40
31595;BME280;18200;48.726;8.892;2023-08-08T14:05:55;96740.13;;;32.49;24.40
31595;BME280;18200;48.726;8.892;2023-08-08T14:09:55;96748.69;;;31.55;24.73
31595;BME280;18200;48.726;8.892;2023-08-08T14:13:57;96746.34;;;31.90;24.90
31595;BME280;18200;48.726;8.892;2023-08-08T14:17:57;96736.63;;;31.69;25.25
31595;BME280;18200;48.726;8.892;2023-08-08T14:21:57;96738.09;;;32.55;24.51
31595;BME280;18200;48.726;8.892;2023-08-08T14:25:58;96747.28;;;32.77;24.64
31595;BME280;18200;48.726;8.892;2023-08-08T14:29:58;96746.88;;;32.42;24.27
31595;BME280;18200;48.726;8.892;2023-08-08T14:33:58;96777.59;;;30.46;25.84
31595;BME280;18200;48.726;8.892;2023-08-08T14:37:59;96763.28;;;31.24;25.37
31595;BME280;18200;48.726;8.892;2023-08-08T14:41:59;96759.63;;;30.41;26.66
31595;BME280;18200;48.726;8.892;2023-08-08T14:45:59;96765.91;;;30.82;26.53
31595;BME280;18200;48.726;8.892;2023-08-08T14:50:00;96766.72;;;31.14;26.45
31595;BME280;18200;48.726;8.892;2023-08-08T14:54:01;96765.72;;;30.65;26.08
31595;BME280;18200;48.726;8.892;2023-08-08T14:58:02;96763.41;;;32.03;25.42
31595;BME280;18200;48.726;8.892;2023-08-08T15:02:02;96754.66;;;33.97;22.77
31595;BME280;18200;48.726;8.892;2023-08-08T15:06:02;96747.34;;;34.62;21.75
31595;BME280;18200;48.726;8.892;2023-08-08T15:10:03;96756.44;;;33.89;23.36
31595;BME280;18200;48.726;8.892;2023-08-08T15:14:03;96741.34;;;30.49;26.43
31595;BME280;18200;48.726;8.892;2023-08-08T15:18:04;96744.31;;;31.85;25.02
31595;BME280;18200;48.726;8.892;2023-08-08T15:22:05;96748.41;;;31.22;25.85
31595;BME280;18200;48.726;8.892;2023-08-08T15:26:06;96768.06;;;30.73;26.45
31595;BME280;18200;48.726;8.892;2023-08-08T15:30:07;96761.78;;;32.34;24.80
31595;BME280;18200;48.726;8.892;2023-08-08T15:34:08;96778.03;;;31.67;25.73
31595;BME280;18200;48.726;8.892;2023-08-08T15:38:08;96780.31;;;31.94;26.05
31595;BME280;18200;48.726;8.892;2023-08-08T15:42:08;96779.97;;;30.99;26.94
31595;BME280;18200;48.726;8.892;2023-08-08T15:46:09;96761.19;;;32.19;25.62
31595;BME280;18200;48.726;8.892;2023-08-08T15:50:09;96758.94;;;32.17;26.09
31595;BME280;18200;48.726;8.892;2023-08-08T15:54:10;96757.94;;;32.26;25.44
31595;BME280;18200;48.726;8.892;2023-08-08T15:58:11;96749.13;;;33.36;24.22
31595;BME280;18200;48.726;8.892;2023-08-08T16:02:11;96752.44;;;32.42;25.18
31595;BME280;18200;48.726;8.892;2023-08-08T16:06:12;96763.28;;;31.92;26.41
31595;BME280;18200;48.726;8.892;2023-08-08T16:10:12;96758.63;;;32.09;26.00
31595;BME280;18200;48.726;8.892;2023-08-08T16:14:12;96759.25;;;31.51;25.98
31595;BME280;18200;48.726;8.892;2023-08-08T16:18:13;96762.31;;;31.59;26.27
31595;BME280;18200;48.726;8.892;2023-08-08T16:22:13;96749.44;;;31.56;26.29
31595;BME280;18200;48.726;8.892;2023-08-08T16:26:13;96754.84;;;32.66;25.58
31595;BME280;18200;48.726;8.892;2023-08-08T16:30:14;96755.91;;;32.21;26.01
31595;BME280;18200;48.726;8.892;2023-08-08T16:34:14;96749.28;;;32.07;25.93
31595;BME280;18200;48.726;8.892;2023-08-08T16:38:15;96747.91;;;31.91;25.59
31595;BME280;18200;48.726;8.892;2023-08-08T16:42:15;96739.13;;;32.63;25.34
31595;BME280;18200;48.726;8.892;2023-08-08T16:46:16;96743.81;;;33.21;23.89
31595;BME280;18200;48.726;8.892;2023-08-08T16:50:16;96755.47;;;33.25;24.27
31595;BME280;18200;48.726;8.892;2023-08-08T16:54:17;96753.94;;;32.32;25.37
31595;BME280;18200;48.726;8.892;2023-08-08T16:58:17;96754.13;;;32.18;25.29
31595;BME280;18200;48.726;8.892;2023-08-08T17:02:17;96761.66;;;32.59;25.10
31595;BME280;18200;48.726;8.892;2023-08-08T17:06:18;96763.13;;;30.82;27.21
31595;BME280;18200;48.726;8.892;2023-08-08T17:10:18;96769.13;;;33.40;24.25
31595;BME280;18200;48.726;8.892;2023-08-08T17:14:18;96774.28;;;32.55;24.80
31595;BME280;18200;48.726;8.892;2023-08-08T17:18:19;96765.81;;;33.91;23.75
31595;BME280;18200;48.726;8.892;2023-08-08T17:22:19;96770.97;;;32.51;25.46
31595;BME280;18200;48.726;8.892;2023-08-08T17:26:19;96763.19;;;32.12;26.11
31595;BME280;18200;48.726;8.892;2023-08-08T17:30:20;96780.69;;;32.83;25.03
31595;BME280;18200;48.726;8.892;2023-08-08T17:34:20;96765.47;;;32.08;26.30
31595;BME280;18200;48.726;8.892;2023-08-08T17:38:21;96767.31;;;31.49;26.25
31595;BME280;18200;48.726;8.892;2023-08-08T17:42:21;96773.72;;;30.58;28.63
31595;BME280;18200;48.726;8.892;2023-08-08T17:46:21;96764.09;;;32.46;26.08
31595;BME280;18200;48.726;8.892;2023-08-08T17:50:22;96768.28;;;32.20;26.30
31595;BME280;18200;48.726;8.892;2023-08-08T17:54:22;96771.88;;;31.52;27.28
31595;BME280;18200;48.726;8.892;2023-08-08T17:58:22;96779.53;;;31.94;27.10
31595;BME280;18200;48.726;8.892;2023-08-08T18:02:23;96772.16;;;33.25;24.80
31595;BME280;18200;48.726;8.892;2023-08-08T18:06:24;96767.97;;;32.60;26.40
31595;BME280;18200;48.726;8.892;2023-08-08T18:10:28;96765.44;;;32.62;26.09
31595;BME280;18200;48.726;8.892;2023-08-08T18:14:28;96761.75;;;32.28;26.44
31595;BME280;18200;48.726;8.892;2023-08-08T18:18:29;96760.00;;;33.39;25.50
31595;BME280;18200;48.726;8.892;2023-08-08T18:22:30;96766.47;;;32.70;26.03
31595;BME280;18200;48.726;8.892;2023-08-08T18:26:30;96757.22;;;32.31;26.41
31595;BME280;18200;48.726;8.892;2023-08-08T18:30:30;96737.34;;;31.33;28.23
31595;BME280;18200;48.726;8.892;2023-08-08T18:34:31;96748.59;;;33.37;25.56
31595;BME280;18200;48.726;8.892;2023-08-08T18:38:31;96752.41;;;33.12;26.25
31595;BME280;18200;48.726;8.892;2023-08-08T18:42:33;96750.41;;;33.40;25.50
31595;BME280;18200;48.726;8.892;2023-08-08T18:46:33;96762.53;;;33.87;25.38
31595;BME280;18200;48.726;8.892;2023-08-08T18:50:34;96760.75;;;33.84;25.06
31595;BME280;18200;48.726;8.892;2023-08-08T18:54:34;96762.06;;;33.55;25.15
31595;BME280;18200;48.726;8.892;2023-08-08T18:58:35;96756.97;;;33.82;25.50
31595;BME280;18200;48.726;8.892;2023-08-08T19:02:35;96752.41;;;34.01;24.81
31595;BME280;18200;48.726;8.892;2023-08-08T19:06:35;96750.84;;;33.89;25.15
31595;BME280;18200;48.726;8.892;2023-08-08T19:10:36;96762.00;;;34.00;26.05
31595;BME280;18200;48.726;8.892;2023-08-08T19:14:36;96764.06;;;33.72;26.19
31595;BME280;18200;48.726;8.892;2023-08-08T19:18:36;96764.06;;;33.83;25.18
31595;BME280;18200;48.726;8.892;2023-08-08T19:22:37;96765.59;;;33.84;25.46
31595;BME280;18200;48.726;8.892;2023-08-08T19:26:37;96778.00;;;33.72;25.67
31595;BME280;18200;48.726;8.892;2023-08-08T19:30:38;96777.25;;;33.43;25.85
31595;BME280;18200;48.726;8.892;2023-08-08T19:34:38;96781.84;;;33.52;26.23
31595;BME280;18200;48.726;8.892;2023-08-08T19:38:38;96776.22;;;33.35;26.98
31595;BME280;18200;48.726;8.892;2023-08-08T19:42:39;96774.19;;;33.19;27.21
31595;BME280;18200;48.726;8.892;2023-08-08T19:46:39;96785.84;;;32.42;26.69
31595;BME280;18200;48.726;8.892;2023-08-08T19:50:40;96775.47;;;33.29;26.06
31595;BME280;18200;48.726;8.892;2023-08-08T19:54:42;96781.03;;;33.07;27.39
31595;BME280;18200;48.726;8.892;2023-08-08T19:58:42;96778.75;;;33.22;27.26
31595;BME280;18200;48.726;8.892;2023-08-08T20:02:42;96773.69;;;33.43;27.47
31595;BME280;18200;48.726;8.892;2023-08-08T20:06:43;96780.78;;;33.05;27.96
31595;BME280;18200;48.726;8.892;2023-08-08T20:10:43;96778.16;;;32.21;28.90
31595;BME280;18200;48.726;8.892;2023-08-08T20:14:44;96771.34;;;32.27;29.23
31595;BME280;18200;48.726;8.892;2023-08-08T20:18:44;96774.47;;;32.46;28.79
31595;BME280;18200;48.726;8.892;2023-08-08T20:22:44;96775.03;;;32.61;28.25
31595;BME280;18200;48.726;8.892;2023-08-08T20:26:45;96767.84;;;32.32;28.64
31595;BME280;18200;48.726;8.892;2023-08-08T20:30:46;96765.97;;;31.70;28.14
31595;BME280;18200;48.726;8.892;2023-08-08T20:34:47;96771.34;;;32.27;28.71
31595;BME280;18200;48.726;8.892;2023-08-08T20:38:48;96772.66;;;31.89;29.64
31595;BME280;18200;48.726;8.892;2023-08-08T20:42:48;96774.06;;;32.10;29.12
31595;BME280;18200;48.726;8.892;2023-08-08T20:46:49;96769.75;;;32.09;29.46
31595;BME280;18200;48.726;8.892;2023-08-08T20:50:49;96764.50;;;31.80;29.81
31595;BME280;18200;48.726;8.892;2023-08-08T20:54:49;96761.63;;;32.00;29.81
31595;BME280;18200;48.726;8.892;2023-08-08T20:58:50;96758.25;;;31.54;30.18
31595;BME280;18200;48.726;8.892;2023-08-08T21:02:50;96753.59;;;31.40;30.19
31595;BME280;18200;48.726;8.892;2023-08-08T21:06:51;96755.22;;;31.52;29.33
31595;BME280;18200;48.726;8.892;2023-08-08T21:10:51;96749.69;;;30.75;30.01
31595;BME280;18200;48.726;8.892;2023-08-08T21:14:51;96757.22;;;29.59;33.12